EDV5459 KLGA-KSAV
Flight info
| Callsign | EDV5459 |
|---|---|
| Flight time | N/A |
| Altitude | 36000 |
| Route | WHITE Q409 SESUE SOOOP |
| Aircraft | CRJ9/M-SDFGIRWY/S |
Departure
| Time | 2026-04-30 21:26 |
|---|---|
| Airport | LaGuardia Airport (KLGA) |
Arrival
| Time | N/A |
|---|---|
| Airport | Savannah Hilton Head International Airport (KSAV) |
| Time | Latitude | Longitude | Altitude | Speed | Heading |
|---|---|---|---|---|---|
| 2026-04-30 20:50 | 40.77148 | -73.86380 | 13 ft | 0 kts | 132° |
| 2026-04-30 20:51 | 40.77147 | -73.86379 | 18 ft | 0 kts | 132° |
| 2026-04-30 21:12 | 40.77153 | -73.86387 | 18 ft | 4 kts | 132° |
| 2026-04-30 21:13 | 40.77165 | -73.86408 | 19 ft | 4 kts | 114° |
| 2026-04-30 21:13 | 40.77162 | -73.86428 | 20 ft | 4 kts | 43° |
| 2026-04-30 21:13 | 40.77175 | -73.86415 | 18 ft | 4 kts | 26° |
| 2026-04-30 21:13 | 40.77196 | -73.86410 | 18 ft | 3 kts | 6° |
| 2026-04-30 21:14 | 40.77214 | -73.86407 | 18 ft | 4 kts | 6° |
| 2026-04-30 21:14 | 40.77249 | -73.86401 | 18 ft | 4 kts | 6° |
| 2026-04-30 21:14 | 40.77263 | -73.86399 | 18 ft | 0 kts | 6° |
| 2026-04-30 21:17 | 40.77262 | -73.86399 | 18 ft | 0 kts | 6° |
| 2026-04-30 21:18 | 40.77267 | -73.86398 | 17 ft | 3 kts | 6° |
| 2026-04-30 21:18 | 40.77311 | -73.86391 | 14 ft | 10 kts | 15° |
| 2026-04-30 21:19 | 40.77329 | -73.86348 | 10 ft | 1 kts | 126° |
| 2026-04-30 21:19 | 40.77313 | -73.86319 | 10 ft | 7 kts | 110° |
| 2026-04-30 21:19 | 40.77328 | -73.86243 | 10 ft | 8 kts | 70° |
| 2026-04-30 21:19 | 40.77321 | -73.86187 | 11 ft | 6 kts | 117° |
| 2026-04-30 21:20 | 40.77296 | -73.86133 | 11 ft | 9 kts | 122° |
| 2026-04-30 21:20 | 40.77256 | -73.86049 | 11 ft | 13 kts | 122° |
| 2026-04-30 21:20 | 40.77209 | -73.85951 | 11 ft | 12 kts | 122° |
| 2026-04-30 21:20 | 40.77164 | -73.85857 | 11 ft | 12 kts | 122° |
| 2026-04-30 21:21 | 40.77148 | -73.85810 | 11 ft | 0 kts | 80° |
| 2026-04-30 21:21 | 40.77148 | -73.85809 | 11 ft | 0 kts | 79° |
| 2026-04-30 21:21 | 40.77152 | -73.85800 | 11 ft | 0 kts | 49° |
| 2026-04-30 21:24 | 40.77159 | -73.85790 | 11 ft | 4 kts | 46° |
| 2026-04-30 21:25 | 40.77236 | -73.85762 | 14 ft | 9 kts | 310° |
| 2026-04-30 21:25 | 40.77302 | -73.85906 | 14 ft | 42 kts | 303° |
| 2026-04-30 21:25 | 40.77581 | -73.86494 | 11 ft | 107 kts | 302° |
| 2026-04-30 21:26 | 40.78641 | -73.88734 | 447 ft | 165 kts | 302° |
| 2026-04-30 21:26 | 40.79238 | -73.90066 | 1082 ft | 175 kts | 299° |
| 2026-04-30 21:27 | 40.80097 | -73.93200 | 2584 ft | 193 kts | 264° |
| 2026-04-30 21:27 | 40.79606 | -73.94823 | 3391 ft | 200 kts | 232° |
| 2026-04-30 21:27 | 40.78474 | -73.95954 | 4053 ft | 214 kts | 211° |
| 2026-04-30 21:28 | 40.75539 | -73.97824 | 5230 ft | 252 kts | 203° |
| 2026-04-30 21:28 | 40.73822 | -73.98558 | 5818 ft | 266 kts | 198° |
| 2026-04-30 21:28 | 40.70163 | -73.99766 | 7267 ft | 273 kts | 195° |
| 2026-04-30 21:29 | 40.68297 | -74.00337 | 8029 ft | 275 kts | 197° |
| 2026-04-30 21:29 | 40.62732 | -74.02331 | 10182 ft | 280 kts | 199° |
| 2026-04-30 21:30 | 40.58799 | -74.03796 | 10733 ft | 311 kts | 199° |
| 2026-04-30 21:31 | 40.52252 | -74.06212 | 12178 ft | 331 kts | 199° |
| 2026-04-30 21:31 | 40.47768 | -74.07861 | 13362 ft | 337 kts | 200° |
| 2026-04-30 21:32 | 40.43229 | -74.09526 | 14506 ft | 339 kts | 200° |
| 2026-04-30 21:32 | 40.40950 | -74.10361 | 15124 ft | 341 kts | 200° |
| 2026-04-30 21:32 | 40.38663 | -74.11201 | 15765 ft | 342 kts | 200° |
| 2026-04-30 21:32 | 40.36367 | -74.12043 | 16383 ft | 344 kts | 201° |
| 2026-04-30 21:33 | 40.34053 | -74.12890 | 17012 ft | 345 kts | 201° |
| 2026-04-30 21:33 | 40.29425 | -74.14578 | 18203 ft | 349 kts | 201° |
| 2026-04-30 21:33 | 40.27077 | -74.15438 | 18690 ft | 351 kts | 201° |
| 2026-04-30 21:34 | 40.24717 | -74.16302 | 19167 ft | 353 kts | 201° |
| 2026-04-30 21:34 | 40.19947 | -74.18044 | 20105 ft | 357 kts | 201° |
| 2026-04-30 21:34 | 40.17546 | -74.18921 | 20555 ft | 360 kts | 201° |
| 2026-04-30 21:35 | 40.15127 | -74.19802 | 21013 ft | 362 kts | 201° |
| 2026-04-30 21:35 | 40.12692 | -74.20689 | 21456 ft | 364 kts | 201° |
| 2026-04-30 21:35 | 40.10246 | -74.21578 | 21906 ft | 366 kts | 201° |
| 2026-04-30 21:35 | 40.07781 | -74.22475 | 22307 ft | 368 kts | 201° |
| 2026-04-30 21:36 | 40.05298 | -74.23372 | 22708 ft | 371 kts | 201° |
| 2026-04-30 21:36 | 40.02836 | -74.24276 | 23104 ft | 371 kts | 204° |
| 2026-04-30 21:37 | 39.96188 | -74.29203 | 24114 ft | 367 kts | 220° |
| 2026-04-30 21:37 | 39.94143 | -74.31215 | 24442 ft | 368 kts | 221° |
| 2026-04-30 21:37 | 39.92105 | -74.33246 | 24752 ft | 370 kts | 221° |
| 2026-04-30 21:37 | 39.90048 | -74.35280 | 25053 ft | 372 kts | 220° |
| 2026-04-30 21:38 | 39.87960 | -74.37285 | 25342 ft | 373 kts | 220° |
| 2026-04-30 21:38 | 39.85858 | -74.39285 | 25622 ft | 375 kts | 220° |
| 2026-04-30 21:38 | 39.83743 | -74.41299 | 25898 ft | 377 kts | 219° |
| 2026-04-30 21:38 | 39.81669 | -74.43328 | 26165 ft | 377 kts | 223° |
| 2026-04-30 21:39 | 39.79693 | -74.45638 | 26435 ft | 377 kts | 227° |
| 2026-04-30 21:39 | 39.77890 | -74.48062 | 26684 ft | 378 kts | 229° |
| 2026-04-30 21:39 | 39.76094 | -74.50572 | 26937 ft | 380 kts | 229° |
| 2026-04-30 21:39 | 39.74284 | -74.53080 | 27183 ft | 382 kts | 229° |
| 2026-04-30 21:40 | 39.72425 | -74.55566 | 27425 ft | 383 kts | 228° |
| 2026-04-30 21:40 | 39.70556 | -74.58045 | 27659 ft | 385 kts | 227° |
| 2026-04-30 21:40 | 39.68668 | -74.60545 | 27792 ft | 388 kts | 228° |
| 2026-04-30 21:40 | 39.66773 | -74.63050 | 28120 ft | 387 kts | 227° |
| 2026-04-30 21:41 | 39.64888 | -74.65542 | 28450 ft | 387 kts | 227° |
| 2026-04-30 21:41 | 39.63002 | -74.68028 | 28761 ft | 386 kts | 227° |
| 2026-04-30 21:41 | 39.61118 | -74.70515 | 29039 ft | 386 kts | 227° |
| 2026-04-30 21:41 | 39.59260 | -74.72961 | 29322 ft | 385 kts | 227° |
| 2026-04-30 21:42 | 39.57376 | -74.75444 | 29582 ft | 385 kts | 227° |
| 2026-04-30 21:42 | 39.55493 | -74.77918 | 29849 ft | 385 kts | 227° |
| 2026-04-30 21:42 | 39.53612 | -74.80392 | 30082 ft | 385 kts | 227° |
| 2026-04-30 21:42 | 39.51731 | -74.82859 | 30287 ft | 384 kts | 227° |
| 2026-04-30 21:43 | 39.49852 | -74.85326 | 30489 ft | 385 kts | 227° |
| 2026-04-30 21:43 | 39.47971 | -74.87788 | 30684 ft | 385 kts | 227° |
| 2026-04-30 21:43 | 39.46087 | -74.90255 | 30881 ft | 385 kts | 227° |
| 2026-04-30 21:43 | 39.44228 | -74.92692 | 31079 ft | 385 kts | 227° |
| 2026-04-30 21:44 | 39.42347 | -74.95155 | 31291 ft | 384 kts | 227° |
| 2026-04-30 21:44 | 39.40463 | -74.97615 | 31484 ft | 384 kts | 227° |
| 2026-04-30 21:44 | 39.38581 | -75.00074 | 31660 ft | 385 kts | 227° |
| 2026-04-30 21:44 | 39.36686 | -75.02546 | 31645 ft | 390 kts | 227° |
| 2026-04-30 21:45 | 39.32857 | -75.07530 | 31642 ft | 389 kts | 227° |
| 2026-04-30 21:45 | 39.29005 | -75.12433 | 31642 ft | 388 kts | 226° |
| 2026-04-30 21:46 | 39.24990 | -75.17093 | 31634 ft | 387 kts | 225° |
| 2026-04-30 21:46 | 39.20983 | -75.21783 | 31655 ft | 392 kts | 225° |
| 2026-04-30 21:47 | 39.16914 | -75.26544 | 31783 ft | 398 kts | 225° |
| 2026-04-30 21:47 | 39.12796 | -75.31341 | 31815 ft | 397 kts | 225° |
| 2026-04-30 21:48 | 39.08736 | -75.36072 | 31819 ft | 395 kts | 225° |
| 2026-04-30 21:48 | 39.04283 | -75.40197 | 31823 ft | 401 kts | 207° |
| 2026-04-30 21:49 | 38.99021 | -75.42661 | 31827 ft | 401 kts | 205° |
| 2026-04-30 21:49 | 38.93800 | -75.45052 | 31821 ft | 400 kts | 205° |
| 2026-04-30 21:50 | 38.91092 | -75.45949 | 31826 ft | 407 kts | 193° |
| 2026-04-30 21:50 | 38.88253 | -75.46264 | 31846 ft | 410 kts | 189° |
| 2026-04-30 21:50 | 38.82552 | -75.46710 | 31846 ft | 409 kts | 191° |
| 2026-04-30 21:51 | 38.76906 | -75.47475 | 31847 ft | 407 kts | 193° |
| 2026-04-30 21:51 | 38.71267 | -75.48248 | 31850 ft | 407 kts | 193° |
| 2026-04-30 21:52 | 38.65657 | -75.49030 | 31848 ft | 408 kts | 192° |
| 2026-04-30 21:52 | 38.59999 | -75.49800 | 31846 ft | 409 kts | 192° |
| 2026-04-30 21:53 | 38.54323 | -75.50569 | 31843 ft | 411 kts | 193° |
| 2026-04-30 21:53 | 38.48631 | -75.51340 | 31849 ft | 412 kts | 193° |
| 2026-04-30 21:54 | 38.42915 | -75.52114 | 31857 ft | 413 kts | 193° |
| 2026-04-30 21:54 | 38.37288 | -75.53154 | 31851 ft | 404 kts | 205° |
| 2026-04-30 21:55 | 38.32135 | -75.55884 | 31863 ft | 400 kts | 210° |
| 2026-04-30 21:55 | 38.27171 | -75.59043 | 31861 ft | 396 kts | 217° |
| 2026-04-30 21:56 | 38.22674 | -75.63035 | 31859 ft | 394 kts | 221° |
| 2026-04-30 21:56 | 38.18198 | -75.67108 | 31858 ft | 397 kts | 220° |
| 2026-04-30 21:57 | 38.13636 | -75.71071 | 31854 ft | 398 kts | 220° |
| 2026-04-30 21:57 | 38.09058 | -75.75042 | 31855 ft | 399 kts | 220° |
| 2026-04-30 21:58 | 38.04493 | -75.78995 | 31858 ft | 400 kts | 220° |
| 2026-04-30 21:58 | 37.99885 | -75.82980 | 31864 ft | 401 kts | 220° |
| 2026-04-30 21:59 | 37.95262 | -75.86971 | 31867 ft | 402 kts | 220° |
| 2026-04-30 22:00 | 37.89090 | -75.92288 | 31874 ft | 403 kts | 220° |
| 2026-04-30 22:00 | 37.82134 | -75.98268 | 31873 ft | 401 kts | 220° |
| 2026-04-30 22:01 | 37.77520 | -76.02224 | 31874 ft | 400 kts | 221° |
| 2026-04-30 22:01 | 37.72925 | -76.06160 | 31868 ft | 398 kts | 221° |
| 2026-04-30 22:02 | 37.68345 | -76.10077 | 31869 ft | 397 kts | 221° |
| 2026-04-30 22:02 | 37.63777 | -76.13977 | 31866 ft | 395 kts | 221° |
| 2026-04-30 22:03 | 37.59234 | -76.17858 | 31860 ft | 394 kts | 222° |
| 2026-04-30 22:03 | 37.54727 | -76.21709 | 31860 ft | 393 kts | 222° |
| 2026-04-30 22:04 | 37.50195 | -76.25574 | 31862 ft | 393 kts | 222° |
| 2026-04-30 22:05 | 37.43381 | -76.31384 | 31860 ft | 394 kts | 222° |
| 2026-04-30 22:05 | 37.38829 | -76.35248 | 31867 ft | 395 kts | 223° |
| 2026-04-30 22:06 | 37.34271 | -76.39122 | 31863 ft | 396 kts | 223° |
| 2026-04-30 22:06 | 37.27413 | -76.44934 | 31865 ft | 396 kts | 223° |
| 2026-04-30 22:07 | 37.22867 | -76.48781 | 31860 ft | 396 kts | 223° |
| 2026-04-30 22:07 | 37.18289 | -76.52648 | 31863 ft | 397 kts | 223° |
| 2026-04-30 22:08 | 37.13700 | -76.56520 | 31857 ft | 397 kts | 223° |
| 2026-04-30 22:08 | 37.09110 | -76.60385 | 31853 ft | 397 kts | 223° |
| 2026-04-30 22:09 | 37.04518 | -76.64245 | 31851 ft | 398 kts | 223° |
| 2026-04-30 22:09 | 36.99918 | -76.68107 | 31858 ft | 398 kts | 224° |
| 2026-04-30 22:10 | 36.95317 | -76.71966 | 31855 ft | 398 kts | 224° |
| 2026-04-30 22:10 | 36.90733 | -76.75802 | 31864 ft | 399 kts | 224° |
| 2026-04-30 22:11 | 36.83811 | -76.81588 | 31876 ft | 398 kts | 224° |
| 2026-04-30 22:12 | 36.79205 | -76.85426 | 31895 ft | 397 kts | 224° |
| 2026-04-30 22:12 | 36.74656 | -76.89217 | 31883 ft | 395 kts | 224° |
| 2026-04-30 22:13 | 36.70085 | -76.93020 | 31875 ft | 394 kts | 224° |
| 2026-04-30 22:13 | 36.65533 | -76.96801 | 31877 ft | 392 kts | 224° |
| 2026-04-30 22:14 | 36.60993 | -77.00565 | 31866 ft | 391 kts | 224° |
| 2026-04-30 22:14 | 36.56475 | -77.04307 | 31874 ft | 389 kts | 225° |
| 2026-04-30 22:15 | 36.51967 | -77.08034 | 31862 ft | 388 kts | 225° |
| 2026-04-30 22:15 | 36.47504 | -77.11721 | 31871 ft | 387 kts | 225° |
| 2026-04-30 22:16 | 36.43017 | -77.15416 | 31877 ft | 386 kts | 225° |
| 2026-04-30 22:17 | 36.34089 | -77.22770 | 31870 ft | 384 kts | 225° |
| 2026-04-30 22:17 | 36.27597 | -77.28486 | 31878 ft | 376 kts | 229° |
| 2026-04-30 22:18 | 36.21490 | -77.34563 | 31879 ft | 375 kts | 229° |
| 2026-04-30 22:19 | 36.15349 | -77.40533 | 31873 ft | 375 kts | 229° |
| 2026-04-30 22:20 | 36.09189 | -77.46500 | 31880 ft | 374 kts | 229° |
| 2026-04-30 22:20 | 36.03007 | -77.52493 | 31887 ft | 377 kts | 229° |
| 2026-04-30 22:21 | 35.98861 | -77.56502 | 31883 ft | 379 kts | 229° |
| 2026-04-30 22:21 | 35.94721 | -77.60496 | 31884 ft | 381 kts | 229° |
| 2026-04-30 22:22 | 35.90534 | -77.64533 | 31883 ft | 383 kts | 229° |
| 2026-04-30 22:22 | 35.86326 | -77.68585 | 31888 ft | 384 kts | 229° |
| 2026-04-30 22:23 | 35.82098 | -77.72646 | 31891 ft | 386 kts | 228° |
| 2026-04-30 22:23 | 35.77859 | -77.76717 | 31892 ft | 387 kts | 228° |
| 2026-04-30 22:24 | 35.73595 | -77.80805 | 31894 ft | 389 kts | 228° |
| 2026-04-30 22:24 | 35.69320 | -77.84896 | 31899 ft | 390 kts | 228° |
| 2026-04-30 22:25 | 35.65027 | -77.89001 | 31893 ft | 391 kts | 228° |
| 2026-04-30 22:25 | 35.60742 | -77.93089 | 31889 ft | 392 kts | 228° |
| 2026-04-30 22:26 | 35.54262 | -77.99264 | 31890 ft | 394 kts | 228° |
| 2026-04-30 22:27 | 35.49929 | -78.03384 | 31886 ft | 394 kts | 228° |
| 2026-04-30 22:27 | 35.43406 | -78.09577 | 31887 ft | 396 kts | 228° |
| 2026-04-30 22:28 | 35.36862 | -78.15782 | 31889 ft | 397 kts | 228° |
| 2026-04-30 22:29 | 35.28119 | -78.24038 | 31893 ft | 399 kts | 227° |
| 2026-04-30 22:31 | 35.12681 | -78.38583 | 31893 ft | 402 kts | 227° |
| 2026-04-30 22:32 | 35.01638 | -78.48939 | 31883 ft | 400 kts | 227° |
| 2026-04-30 22:33 | 34.90620 | -78.59235 | 31888 ft | 398 kts | 227° |
| 2026-04-30 22:35 | 34.79664 | -78.69437 | 31875 ft | 396 kts | 227° |
| 2026-04-30 22:36 | 34.68711 | -78.79605 | 31881 ft | 396 kts | 227° |
| 2026-04-30 22:37 | 34.59958 | -78.87702 | 31876 ft | 395 kts | 227° |
| 2026-04-30 22:38 | 34.51206 | -78.95778 | 31870 ft | 395 kts | 227° |
| 2026-04-30 22:39 | 34.44635 | -79.01808 | 31868 ft | 395 kts | 227° |
| 2026-04-30 22:40 | 34.31207 | -79.13458 | 31874 ft | 397 kts | 225° |
| 2026-04-30 22:41 | 34.20256 | -79.23460 | 31883 ft | 392 kts | 229° |
| 2026-04-30 22:43 | 34.07579 | -79.35944 | 31882 ft | 394 kts | 228° |
| 2026-04-30 22:44 | 33.98997 | -79.44362 | 31883 ft | 400 kts | 228° |
| 2026-04-30 22:45 | 33.85777 | -79.56982 | 31880 ft | 414 kts | 223° |
| 2026-04-30 22:47 | 33.71294 | -79.66899 | 31882 ft | 426 kts | 218° |
| 2026-04-30 22:48 | 33.60962 | -79.73907 | 31878 ft | 429 kts | 218° |
| 2026-04-30 22:49 | 33.45413 | -79.84428 | 31868 ft | 427 kts | 218° |
| 2026-04-30 22:51 | 33.29940 | -79.94851 | 31865 ft | 425 kts | 218° |
| 2026-04-30 22:52 | 33.22193 | -80.00050 | 31871 ft | 425 kts | 218° |
| 2026-04-30 22:53 | 33.11905 | -80.06941 | 31869 ft | 425 kts | 218° |
| 2026-04-30 22:53 | 33.04166 | -80.12113 | 31856 ft | 425 kts | 218° |
| 2026-04-30 22:55 | 32.91103 | -80.20827 | 30554 ft | 428 kts | 216° |
| 2026-04-30 22:55 | 32.86019 | -80.24199 | 29542 ft | 410 kts | 217° |
| 2026-04-30 22:56 | 32.81711 | -80.28155 | 28448 ft | 380 kts | 242° |
| 2026-04-30 22:56 | 32.77727 | -80.36464 | 26982 ft | 400 kts | 248° |
| 2026-04-30 22:57 | 32.75149 | -80.42425 | 26057 ft | 415 kts | 248° |
| 2026-04-30 22:57 | 32.73870 | -80.45517 | 25597 ft | 420 kts | 250° |
| 2026-04-30 22:58 | 32.72373 | -80.49429 | 25039 ft | 422 kts | 251° |
| 2026-04-30 22:59 | 32.68941 | -80.58613 | 23668 ft | 386 kts | 251° |
| 2026-04-30 22:59 | 32.65750 | -80.67056 | 22143 ft | 369 kts | 251° |